createdAt,value
2022-12-13T00:00:02.685Z,93.16
2022-12-13T00:01:02.642Z,93.16
2022-12-13T00:02:02.700Z,93.21
2022-12-13T00:03:02.633Z,93.10
2022-12-13T00:04:02.704Z,93.21
2022-12-13T00:05:02.632Z,93.21
2022-12-13T00:06:02.660Z,93.38
2022-12-13T00:07:02.582Z,93.48
2022-12-13T00:08:02.718Z,93.48
2022-12-13T00:09:02.550Z,93.59
2022-12-13T00:10:02.562Z,93.59
2022-12-13T00:11:02.544Z,93.59
2022-12-13T00:12:02.565Z,93.59
2022-12-13T00:13:02.509Z,93.70
2022-12-13T00:14:02.564Z,93.70
2022-12-13T00:15:02.510Z,93.70
2022-12-13T00:16:02.569Z,93.80
2022-12-13T00:17:02.532Z,93.80
2022-12-13T00:18:02.524Z,93.80
2022-12-13T00:19:02.500Z,93.80
2022-12-13T00:20:02.471Z,93.80
2022-12-13T00:21:02.428Z,93.80
2022-12-13T00:22:02.440Z,93.80
2022-12-13T00:23:02.409Z,93.70
2022-12-13T00:24:02.525Z,93.70
2022-12-13T00:25:02.379Z,93.70
2022-12-13T00:26:02.415Z,93.59
2022-12-13T00:27:02.381Z,93.59
2022-12-13T00:28:02.404Z,93.70
2022-12-13T00:29:02.357Z,93.70
2022-12-13T00:30:02.381Z,93.70
2022-12-13T00:31:26.116Z,93.70
2022-12-13T00:32:03.533Z,93.70
2022-12-13T00:33:02.319Z,93.70
2022-12-13T00:34:02.380Z,93.59
2022-12-13T00:35:02.294Z,93.59
2022-12-13T00:36:02.287Z,93.59
2022-12-13T00:37:02.280Z,93.38
2022-12-13T00:38:02.277Z,93.48
2022-12-13T00:39:02.246Z,93.59
2022-12-13T00:40:02.265Z,93.59
2022-12-13T00:41:02.247Z,93.70
2022-12-13T00:42:02.245Z,94.08
2022-12-13T00:43:02.241Z,94.68
2022-12-13T00:44:02.205Z,95.00
2022-12-13T00:45:02.164Z,95.21
2022-12-13T00:46:02.259Z,95.28
2022-12-13T00:47:02.211Z,95.38
2022-12-13T00:48:02.172Z,95.48
2022-12-13T00:49:02.177Z,95.81
2022-12-13T00:50:02.144Z,96.19
2022-12-13T00:51:02.125Z,96.57
2022-12-13T00:52:02.151Z,96.73
2022-12-13T00:53:02.103Z,96.95
2022-12-13T00:54:02.144Z,97.02
2022-12-13T00:55:02.071Z,97.02
2022-12-13T00:56:02.104Z,97.02
2022-12-13T00:57:02.122Z,97.02
2022-12-13T00:58:02.173Z,97.02
2022-12-13T00:59:02.260Z,97.02
2022-12-13T01:00:02.345Z,97.02
2022-12-13T01:01:02.396Z,97.02
2022-12-13T01:02:01.989Z,97.08
2022-12-13T01:03:02.147Z,97.18
2022-12-13T01:04:02.041Z,97.18
2022-12-13T01:05:02.472Z,97.18
2022-12-13T01:06:14.812Z,97.18
2022-12-13T01:07:03.010Z,97.18
2022-12-13T01:08:02.043Z,97.18
2022-12-13T01:09:01.961Z,97.29
2022-12-13T01:10:01.950Z,97.24
2022-12-13T01:11:01.929Z,97.24
2022-12-13T01:12:01.955Z,97.14
2022-12-13T01:13:01.895Z,97.14
2022-12-13T01:14:01.903Z,97.14
2022-12-13T01:15:01.871Z,97.14
2022-12-13T01:16:01.846Z,97.14
2022-12-13T01:17:01.903Z,97.14
2022-12-13T01:18:01.959Z,97.24
2022-12-13T01:19:01.827Z,97.24
2022-12-13T01:20:01.789Z,97.20
2022-12-13T01:21:01.904Z,97.20
2022-12-13T01:22:01.767Z,97.20
2022-12-13T01:23:01.787Z,97.20
2022-12-13T01:24:01.747Z,97.20
2022-12-13T01:25:01.791Z,97.20
2022-12-13T01:26:01.725Z,97.09
2022-12-13T01:27:01.755Z,97.09
2022-12-13T01:28:01.724Z,97.09
2022-12-13T01:29:01.726Z,96.98
2022-12-13T01:30:01.721Z,96.98
2022-12-13T01:31:01.745Z,96.98
2022-12-13T01:32:01.685Z,96.88
2022-12-13T01:33:01.685Z,96.88
2022-12-13T01:34:02.644Z,96.88
2022-12-13T01:35:01.655Z,96.88
2022-12-13T01:36:01.660Z,96.88
2022-12-13T01:37:01.675Z,96.98
2022-12-13T01:38:01.706Z,96.98
2022-12-13T01:39:02.664Z,96.98
2022-12-13T01:40:02.587Z,96.88
2022-12-13T01:41:02.603Z,96.88
2022-12-13T01:42:02.563Z,96.88
2022-12-13T01:43:01.563Z,96.88
2022-12-13T01:44:02.554Z,96.88
2022-12-13T01:45:01.542Z,96.78
2022-12-13T01:46:01.565Z,96.88
2022-12-13T01:47:01.521Z,96.88
2022-12-13T01:48:01.492Z,96.88
2022-12-13T01:49:01.509Z,96.78
2022-12-13T01:50:01.462Z,96.78
2022-12-13T01:51:01.490Z,96.78
2022-12-13T01:52:01.440Z,96.67
2022-12-13T01:53:01.497Z,96.67
2022-12-13T01:54:01.473Z,96.67
2022-12-13T01:55:15.473Z,96.56
2022-12-13T01:56:02.401Z,96.56
2022-12-13T01:57:01.424Z,96.56
2022-12-13T01:58:01.412Z,96.56
2022-12-13T01:59:01.424Z,96.56
2022-12-13T02:00:01.399Z,96.56
2022-12-13T02:01:01.470Z,96.56
2022-12-13T02:02:01.436Z,96.56
2022-12-13T02:03:01.390Z,96.56
2022-12-13T02:04:01.326Z,96.56
2022-12-13T02:05:01.379Z,96.56
2022-12-13T02:06:01.332Z,96.56
2022-12-13T02:07:01.310Z,96.56
2022-12-13T02:08:01.352Z,96.67
2022-12-13T02:09:01.500Z,96.62
2022-12-13T02:10:01.293Z,96.62
2022-12-13T02:11:01.293Z,96.62
2022-12-13T02:12:01.247Z,96.62
2022-12-13T02:13:01.247Z,96.62
2022-12-13T02:14:01.218Z,96.62
2022-12-13T02:15:01.420Z,96.52
2022-12-13T02:16:01.298Z,96.52
2022-12-13T02:17:01.217Z,96.52
2022-12-13T02:18:01.347Z,96.48
2022-12-13T02:19:01.354Z,96.48
2022-12-13T02:20:01.153Z,96.48
2022-12-13T02:21:01.166Z,96.48
2022-12-13T02:22:01.174Z,96.37
2022-12-13T02:23:01.136Z,96.37
2022-12-13T02:24:01.107Z,96.37
2022-12-13T02:25:02.127Z,96.48
2022-12-13T02:26:01.087Z,96.37
2022-12-13T02:27:01.207Z,96.37
2022-12-13T02:28:01.182Z,96.37
2022-12-13T02:29:01.093Z,96.37
2022-12-13T02:30:01.097Z,96.37
2022-12-13T02:31:01.161Z,96.37
2022-12-13T02:32:01.024Z,96.37
2022-12-13T02:33:01.035Z,96.37
2022-12-13T02:34:01.014Z,96.26
2022-12-13T02:35:01.022Z,96.26
2022-12-13T02:36:00.974Z,96.26
2022-12-13T02:37:00.983Z,96.26
2022-12-13T02:38:00.962Z,96.22
2022-12-13T02:39:01.607Z,96.22
2022-12-13T02:40:00.951Z,96.22
2022-12-13T02:41:01.085Z,96.22
2022-12-13T02:42:00.913Z,96.22
2022-12-13T02:43:00.993Z,96.22
2022-12-13T02:44:01.348Z,96.12
2022-12-13T02:45:01.049Z,96.12
2022-12-13T02:46:00.919Z,96.12
2022-12-13T02:47:00.881Z,96.12
2022-12-13T02:48:00.860Z,96.01
2022-12-13T02:49:00.910Z,96.01
2022-12-13T02:50:00.852Z,95.90
2022-12-13T02:51:00.845Z,95.90
2022-12-13T02:52:00.801Z,95.90
2022-12-13T02:53:00.823Z,95.80
2022-12-13T02:54:00.801Z,95.80
2022-12-13T02:55:00.803Z,95.69
2022-12-13T02:56:00.819Z,95.59
2022-12-13T02:57:00.789Z,95.59
2022-12-13T02:58:00.766Z,95.59
2022-12-13T02:59:00.799Z,95.59
2022-12-13T03:00:00.928Z,95.59
2022-12-13T03:01:00.749Z,95.59
2022-12-13T03:02:09.734Z,95.48
2022-12-13T03:03:01.875Z,95.48
2022-12-13T03:04:01.049Z,95.37
2022-12-13T03:05:00.691Z,95.17
2022-12-13T03:06:00.949Z,95.06
2022-12-13T03:07:01.725Z,94.85
2022-12-13T03:08:00.699Z,94.85
2022-12-13T03:09:00.755Z,94.85
2022-12-13T03:10:00.688Z,94.74
2022-12-13T03:11:00.656Z,94.74
2022-12-13T03:12:00.587Z,94.74
2022-12-13T03:13:00.653Z,94.74
2022-12-13T03:14:00.580Z,94.74
2022-12-13T03:15:00.585Z,94.64
2022-12-13T03:16:00.635Z,94.74
2022-12-13T03:17:00.867Z,94.64
2022-12-13T03:18:00.540Z,94.64
2022-12-13T03:19:00.547Z,94.53
2022-12-13T03:20:00.548Z,94.42
2022-12-13T03:21:00.561Z,94.42
2022-12-13T03:22:01.490Z,94.42
2022-12-13T03:23:00.498Z,94.42
2022-12-13T03:24:00.516Z,94.42
2022-12-13T03:25:00.475Z,94.32
2022-12-13T03:26:00.432Z,94.32
2022-12-13T03:27:00.476Z,94.32
2022-12-13T03:28:01.557Z,94.32
2022-12-13T03:29:00.434Z,94.42
2022-12-13T03:30:00.397Z,94.42
2022-12-13T03:31:00.489Z,94.32
2022-12-13T03:32:00.422Z,94.32
2022-12-13T03:33:00.452Z,94.32
2022-12-13T03:34:00.385Z,94.32
2022-12-13T03:35:00.449Z,94.32
2022-12-13T03:36:00.326Z,94.21
2022-12-13T03:37:00.371Z,94.21
2022-12-13T03:38:00.303Z,94.10
2022-12-13T03:39:00.324Z,94.00
2022-12-13T03:40:00.445Z,94.00
2022-12-13T03:41:00.417Z,94.10
2022-12-13T03:42:00.270Z,94.10
2022-12-13T03:43:00.281Z,94.21
2022-12-13T03:44:00.248Z,94.21
2022-12-13T03:45:00.289Z,94.21
2022-12-13T03:46:00.296Z,94.21
2022-12-13T03:47:01.010Z,94.21
2022-12-13T03:48:00.200Z,94.21
2022-12-13T03:49:00.861Z,94.21
2022-12-13T03:50:00.203Z,94.17
2022-12-13T03:51:01.212Z,94.17
2022-12-13T03:52:00.204Z,94.17
2022-12-13T03:53:00.240Z,94.27
2022-12-13T03:54:00.138Z,94.17
2022-12-13T03:55:00.188Z,94.17
2022-12-13T03:56:00.873Z,94.06
2022-12-13T03:57:00.158Z,93.96
2022-12-13T03:58:06.145Z,93.85
2022-12-13T03:59:01.108Z,93.74
2022-12-13T04:00:00.222Z,93.74
2022-12-13T04:01:00.342Z,93.64
2022-12-13T04:02:00.239Z,93.64
2022-12-13T04:03:00.179Z,93.64
2022-12-13T04:04:00.033Z,93.64
2022-12-13T04:05:00.745Z,93.64
2022-12-13T04:06:00.025Z,93.74
2022-12-13T04:07:00.030Z,93.64
2022-12-13T04:08:00.714Z,93.64
2022-12-13T04:08:59.990Z,93.53
2022-12-13T04:09:59.968Z,93.53
2022-12-13T04:11:00.822Z,93.43
2022-12-13T04:11:59.936Z,93.43
2022-12-13T04:13:00.475Z,93.43
2022-12-13T04:13:59.926Z,93.43
2022-12-13T04:14:59.962Z,93.43
2022-12-13T04:15:59.948Z,93.43
2022-12-13T04:16:59.914Z,93.32
2022-12-13T04:17:59.876Z,93.43
2022-12-13T04:18:59.895Z,93.43
2022-12-13T04:19:59.864Z,93.43
2022-12-13T04:20:59.912Z,93.32
2022-12-13T04:21:59.863Z,93.32
2022-12-13T04:22:59.856Z,93.21
2022-12-13T04:24:00.979Z,93.26
2022-12-13T04:24:59.826Z,93.21
2022-12-13T04:25:59.794Z,93.21
2022-12-13T04:26:59.839Z,93.37
2022-12-13T04:27:59.791Z,93.32
2022-12-13T04:28:59.812Z,93.37
2022-12-13T04:29:59.762Z,93.15
2022-12-13T04:30:59.788Z,93.05
2022-12-13T04:31:59.739Z,93.05
2022-12-13T04:32:59.793Z,93.15
2022-12-13T04:33:59.710Z,93.05
2022-12-13T04:35:01.315Z,93.05
2022-12-13T04:36:00.734Z,93.05
2022-12-13T04:36:59.729Z,93.05
2022-12-13T04:37:59.701Z,93.15
2022-12-13T04:39:00.532Z,93.15
2022-12-13T04:40:00.806Z,93.15
2022-12-13T04:40:59.701Z,93.15
2022-12-13T04:41:59.892Z,93.15
2022-12-13T04:42:59.792Z,92.94
2022-12-13T04:43:59.666Z,92.94
2022-12-13T04:44:59.611Z,93.05
2022-12-13T04:45:59.746Z,93.05
2022-12-13T04:47:01.157Z,93.05
2022-12-13T04:47:59.572Z,93.05
2022-12-13T04:48:59.582Z,93.05
2022-12-13T04:49:59.562Z,93.15
2022-12-13T04:51:01.402Z,93.26
2022-12-13T04:52:01.641Z,93.26
2022-12-13T04:52:59.544Z,93.26
2022-12-13T04:54:23.348Z,93.32
2022-12-13T04:55:00.562Z,93.21
2022-12-13T04:55:59.481Z,93.21
2022-12-13T04:56:59.478Z,93.21
2022-12-13T04:57:59.448Z,93.21
2022-12-13T04:58:59.506Z,93.21
2022-12-13T04:59:59.475Z,93.21
2022-12-13T05:00:59.987Z,93.21
2022-12-13T05:01:59.970Z,93.21
2022-12-13T05:02:59.437Z,93.32
2022-12-13T05:03:59.424Z,93.21
2022-12-13T05:04:59.408Z,93.21
2022-12-13T05:05:59.376Z,93.11
2022-12-13T05:06:59.395Z,93.01
2022-12-13T05:07:59.498Z,92.90
2022-12-13T05:09:00.831Z,92.79
2022-12-13T05:09:59.345Z,92.69
2022-12-13T05:10:59.425Z,92.52
2022-12-13T05:12:01.644Z,92.30
2022-12-13T05:12:59.349Z,92.30
2022-12-13T05:13:59.343Z,92.30
2022-12-13T05:14:59.274Z,92.30
2022-12-13T05:15:59.275Z,92.30
2022-12-13T05:16:59.310Z,92.30
2022-12-13T05:17:59.339Z,92.41
2022-12-13T05:18:59.280Z,92.52
2022-12-13T05:19:59.243Z,92.69
2022-12-13T05:20:59.216Z,92.79
2022-12-13T05:22:01.108Z,92.79
2022-12-13T05:22:59.863Z,92.79
2022-12-13T05:23:59.585Z,92.69
2022-12-13T05:24:59.188Z,92.62
2022-12-13T05:25:59.207Z,92.52
2022-12-13T05:26:59.157Z,92.52
2022-12-13T05:27:59.207Z,92.52
2022-12-13T05:28:59.209Z,92.62
2022-12-13T05:30:03.935Z,92.62
2022-12-13T05:31:00.101Z,92.83
2022-12-13T05:31:59.191Z,92.94
2022-12-13T05:32:59.079Z,92.94
2022-12-13T05:34:01.577Z,92.94
2022-12-13T05:34:59.052Z,93.05
2022-12-13T05:36:01.451Z,92.94
2022-12-13T05:36:59.070Z,92.83
2022-12-13T05:37:59.051Z,92.83
2022-12-13T05:38:59.022Z,92.79
2022-12-13T05:39:59.024Z,92.79
2022-12-13T05:40:59.003Z,92.79
2022-12-13T05:42:01.290Z,92.79
2022-12-13T05:43:01.000Z,92.90
2022-12-13T05:43:58.999Z,92.90
2022-12-13T05:44:59.020Z,92.90
2022-12-13T05:45:59.066Z,92.90
2022-12-13T05:46:58.930Z,92.90
2022-12-13T05:47:58.940Z,92.90
2022-12-13T05:48:58.950Z,92.90
2022-12-13T05:49:58.934Z,92.90
2022-12-13T05:51:10.476Z,92.90
2022-12-13T05:51:59.913Z,92.90
2022-12-13T05:52:58.868Z,92.90
2022-12-13T05:53:58.909Z,92.90
2022-12-13T05:55:01.352Z,93.01
2022-12-13T05:55:58.857Z,93.01
2022-12-13T05:56:58.844Z,92.90
2022-12-13T05:58:02.328Z,92.79
2022-12-13T05:58:58.839Z,92.79
2022-12-13T05:59:58.811Z,92.69
2022-12-13T06:00:58.818Z,92.69
2022-12-13T06:01:58.840Z,92.58
2022-12-13T06:03:00.962Z,92.58
2022-12-13T06:03:58.991Z,92.58
2022-12-13T06:04:58.746Z,92.58
2022-12-13T06:05:58.745Z,92.47
2022-12-13T06:06:58.731Z,92.47
2022-12-13T06:07:59.137Z,92.47
2022-12-13T06:08:58.773Z,92.47
2022-12-13T06:10:09.595Z,92.47
2022-12-13T06:11:10.988Z,92.47
2022-12-13T06:12:01.114Z,92.47
2022-12-13T06:13:00.887Z,92.47
2022-12-13T06:14:00.749Z,92.47
2022-12-13T06:15:21.565Z,92.47
2022-12-13T06:16:01.582Z,92.47
2022-12-13T06:16:58.650Z,92.58
2022-12-13T06:17:58.635Z,92.58
2022-12-13T06:19:04.174Z,92.58
2022-12-13T06:19:59.604Z,92.69
2022-12-13T06:20:58.571Z,92.69
2022-12-13T06:21:58.624Z,92.79
2022-12-13T06:22:58.577Z,92.79
2022-12-13T06:23:58.799Z,92.79
2022-12-13T06:24:58.518Z,92.90
2022-12-13T06:25:58.541Z,93.01
2022-12-13T06:26:58.496Z,93.01
2022-12-13T06:27:58.511Z,93.01
2022-12-13T06:28:58.493Z,92.90
2022-12-13T06:30:02.403Z,92.90
2022-12-13T06:30:58.598Z,92.90
2022-12-13T06:32:01.313Z,92.90
2022-12-13T06:32:58.460Z,92.79
2022-12-13T06:33:58.449Z,92.90
2022-12-13T06:34:59.411Z,92.90
2022-12-13T06:35:58.432Z,92.90
2022-12-13T06:36:58.398Z,92.90
2022-12-13T06:38:00.910Z,92.90
2022-12-13T06:38:58.370Z,92.90
2022-12-13T06:39:58.425Z,92.90
2022-12-13T06:40:58.584Z,92.90
2022-12-13T06:41:58.449Z,92.79
2022-12-13T06:42:58.349Z,92.79
2022-12-13T06:43:58.767Z,92.79
2022-12-13T06:44:58.318Z,92.79
2022-12-13T06:45:58.382Z,92.79
2022-12-13T06:47:11.370Z,92.94
2022-12-13T06:47:59.292Z,92.83
2022-12-13T06:48:58.300Z,92.83
2022-12-13T06:49:58.325Z,92.73
2022-12-13T06:50:59.286Z,92.62
2022-12-13T06:51:58.601Z,92.41
2022-12-13T06:52:58.235Z,92.30
2022-12-13T06:53:58.236Z,92.30
2022-12-13T06:54:59.974Z,92.20
2022-12-13T06:55:58.228Z,92.30
2022-12-13T06:56:58.208Z,92.30
2022-12-13T06:57:58.197Z,92.41
2022-12-13T06:59:01.457Z,92.41
2022-12-13T06:59:58.189Z,92.30
2022-12-13T07:00:58.187Z,92.30
2022-12-13T07:02:03.660Z,92.41
2022-12-13T07:02:59.398Z,92.52
2022-12-13T07:03:58.154Z,92.62
2022-12-13T07:04:58.159Z,92.73
2022-12-13T07:05:58.495Z,92.83
2022-12-13T07:07:01.717Z,92.94
2022-12-13T07:07:58.200Z,92.94
2022-12-13T07:08:58.057Z,93.05
2022-12-13T07:09:58.147Z,93.15
2022-12-13T07:10:58.035Z,93.15
2022-12-13T07:11:58.117Z,93.26
2022-12-13T07:12:58.052Z,93.15
2022-12-13T07:13:58.012Z,93.15
2022-12-13T07:14:58.032Z,93.05
2022-12-13T07:16:01.122Z,93.05
2022-12-13T07:17:03.356Z,93.05
2022-12-13T07:17:58.979Z,93.05
2022-12-13T07:19:01.295Z,92.94
2022-12-13T07:19:58.002Z,93.05
2022-12-13T07:20:57.957Z,92.94
2022-12-13T07:21:57.972Z,92.94
2022-12-13T07:22:59.222Z,92.94
2022-12-13T07:23:57.938Z,92.83
2022-12-13T07:24:57.957Z,92.83
2022-12-13T07:25:57.966Z,92.73
2022-12-13T07:26:57.852Z,92.73
2022-12-13T07:28:02.193Z,92.73
2022-12-13T07:28:58.843Z,92.73
2022-12-13T07:29:58.131Z,92.77
2022-12-13T07:30:57.853Z,92.77
2022-12-13T07:32:01.815Z,92.66
2022-12-13T07:32:57.812Z,92.66
2022-12-13T07:33:57.907Z,92.56
2022-12-13T07:34:57.764Z,92.56
2022-12-13T07:35:57.816Z,92.56
2022-12-13T07:36:57.751Z,92.56
2022-12-13T07:37:57.804Z,92.45
2022-12-13T07:38:57.736Z,92.45
2022-12-13T07:40:02.958Z,92.45
2022-12-13T07:40:58.742Z,92.45
2022-12-13T07:41:57.754Z,92.35
2022-12-13T07:42:57.681Z,92.35
2022-12-13T07:43:57.692Z,92.24
2022-12-13T07:44:57.685Z,92.24
2022-12-13T07:45:57.879Z,92.24
2022-12-13T07:46:58.005Z,92.24
2022-12-13T07:47:57.675Z,92.24
2022-12-13T07:49:01.403Z,92.24
2022-12-13T07:49:57.648Z,92.35
2022-12-13T07:50:57.627Z,92.45
2022-12-13T07:51:57.634Z,92.45
2022-12-13T07:52:57.594Z,92.56
2022-12-13T07:53:57.646Z,92.45
2022-12-13T07:54:57.550Z,92.45
2022-12-13T07:55:57.618Z,92.45
2022-12-13T07:57:04.083Z,92.35
2022-12-13T07:57:58.558Z,92.35
2022-12-13T07:58:58.507Z,92.35
2022-12-13T07:59:57.535Z,92.35
2022-12-13T08:00:57.582Z,92.24
2022-12-13T08:01:57.704Z,92.24
2022-12-13T08:02:57.507Z,92.20
2022-12-13T08:03:57.548Z,92.20
2022-12-13T08:04:57.522Z,92.20
2022-12-13T08:05:58.822Z,92.20
2022-12-13T08:06:57.737Z,92.20
2022-12-13T08:07:57.497Z,92.10
2022-12-13T08:08:57.428Z,92.20
2022-12-13T08:09:57.447Z,92.10
2022-12-13T08:10:57.404Z,92.10
2022-12-13T08:11:57.423Z,91.99
2022-12-13T08:12:57.395Z,91.99
2022-12-13T08:13:57.364Z,91.88
2022-12-13T08:14:57.345Z,91.67
2022-12-13T08:15:57.429Z,91.56
2022-12-13T08:16:57.464Z,91.46
2022-12-13T08:17:57.387Z,91.46
2022-12-13T08:19:02.305Z,91.35
2022-12-13T08:19:58.324Z,91.29
2022-12-13T08:20:57.294Z,91.29
2022-12-13T08:22:01.308Z,91.29
2022-12-13T08:23:01.844Z,91.29
2022-12-13T08:23:58.262Z,91.39
2022-12-13T08:24:57.243Z,91.39
2022-12-13T08:25:57.514Z,91.50
2022-12-13T08:26:57.292Z,91.50
2022-12-13T08:28:02.079Z,91.50
2022-12-13T08:28:58.193Z,91.50
2022-12-13T08:29:58.041Z,91.61
2022-12-13T08:30:57.208Z,91.61
2022-12-13T08:31:57.242Z,91.56
2022-12-13T08:32:57.154Z,91.46
2022-12-13T08:33:57.372Z,91.46
2022-12-13T08:34:57.150Z,91.46
2022-12-13T08:35:57.175Z,91.46
2022-12-13T08:37:01.625Z,91.46
2022-12-13T08:37:58.165Z,91.35
2022-12-13T08:38:57.133Z,91.35
2022-12-13T08:39:57.230Z,91.35
2022-12-13T08:40:57.170Z,91.14
2022-12-13T08:41:57.163Z,90.89
2022-12-13T08:42:57.045Z,90.78
2022-12-13T08:43:57.060Z,90.78
2022-12-13T08:44:57.018Z,90.67
2022-12-13T08:46:01.284Z,90.67
2022-12-13T08:46:57.049Z,90.64
2022-12-13T08:47:57.027Z,90.64
2022-12-13T08:48:57.016Z,90.64
2022-12-13T08:50:03.128Z,90.64
2022-12-13T08:50:57.954Z,90.64
2022-12-13T08:51:56.978Z,90.64
2022-12-13T08:52:56.942Z,90.64
2022-12-13T08:54:10.824Z,90.53
2022-12-13T08:54:57.921Z,90.49
2022-12-13T08:55:56.917Z,90.49
2022-12-13T08:56:56.888Z,90.38
2022-12-13T08:57:56.909Z,90.49
2022-12-13T08:58:56.927Z,90.38
2022-12-13T08:59:56.900Z,90.17
2022-12-13T09:00:56.888Z,89.96
2022-12-13T09:02:01.608Z,89.71
2022-12-13T09:02:57.826Z,89.71
2022-12-13T09:03:56.826Z,89.71
2022-12-13T09:04:56.837Z,89.71
2022-12-13T09:05:56.849Z,89.61
2022-12-13T09:06:56.819Z,89.46
2022-12-13T09:07:57.016Z,89.46
2022-12-13T09:08:56.877Z,89.46
2022-12-13T09:09:56.773Z,89.46
2022-12-13T09:10:56.767Z,89.31
2022-12-13T09:11:59.268Z,89.10
2022-12-13T09:13:01.772Z,88.89
2022-12-13T09:14:01.381Z,88.78
2022-12-13T09:15:01.543Z,88.57
2022-12-13T09:16:01.524Z,88.46
2022-12-13T09:16:56.734Z,88.36
2022-12-13T09:17:57.755Z,87.90
2022-12-13T09:18:57.643Z,87.27
2022-12-13T09:19:58.526Z,87.27
2022-12-13T09:21:10.160Z,87.16
2022-12-13T09:22:02.708Z,87.16
2022-12-13T09:23:01.280Z,86.91
2022-12-13T09:23:56.639Z,86.80
2022-12-13T09:24:57.614Z,86.70
2022-12-13T09:26:05.998Z,86.59
2022-12-13T09:26:57.640Z,86.49
2022-12-13T09:27:56.582Z,86.38
2022-12-13T09:28:56.561Z,86.24
2022-12-13T09:29:57.543Z,86.24
2022-12-13T09:30:56.574Z,86.13
2022-12-13T09:31:56.613Z,85.92
2022-12-13T09:32:56.531Z,85.50
2022-12-13T09:33:56.491Z,85.39
2022-12-13T09:34:56.596Z,85.57
2022-12-13T09:35:56.513Z,85.36
2022-12-13T09:37:01.496Z,85.14
2022-12-13T09:37:57.450Z,85.46
2022-12-13T09:38:56.467Z,85.42
2022-12-13T09:40:16.381Z,85.00
2022-12-13T09:40:58.294Z,85.00
2022-12-13T09:42:01.237Z,85.21
2022-12-13T09:43:13.667Z,85.00
2022-12-13T09:44:00.997Z,85.07
2022-12-13T09:45:03.103Z,84.96
2022-12-13T09:46:01.041Z,84.86
2022-12-13T09:47:00.941Z,84.44
2022-12-13T09:48:01.264Z,84.23
2022-12-13T09:49:01.506Z,84.01
2022-12-13T09:49:56.408Z,83.76
2022-12-13T09:51:17.126Z,83.66
2022-12-13T09:52:10.631Z,83.45
2022-12-13T09:52:59.759Z,83.56
2022-12-13T09:53:56.291Z,83.34
2022-12-13T09:54:56.302Z,82.99
2022-12-13T09:56:10.238Z,82.89
2022-12-13T09:56:57.270Z,82.89
2022-12-13T09:57:56.262Z,82.68
2022-12-13T09:58:56.256Z,81.94
2022-12-13T10:00:01.146Z,81.52
2022-12-13T10:00:57.274Z,81.31
2022-12-13T10:01:56.284Z,81.13
2022-12-13T10:02:56.238Z,81.24
2022-12-13T10:03:56.168Z,81.13
2022-12-13T10:05:00.750Z,81.45
2022-12-13T10:05:57.139Z,81.98
2022-12-13T10:06:56.188Z,81.87
2022-12-13T10:07:56.132Z,81.66
2022-12-13T10:08:57.779Z,81.77
2022-12-13T10:09:56.097Z,81.98
2022-12-13T10:10:56.125Z,81.98
2022-12-13T10:11:56.087Z,81.98
2022-12-13T10:12:56.110Z,81.77
2022-12-13T10:13:56.068Z,81.98
2022-12-13T10:14:57.142Z,81.94
2022-12-13T10:15:56.166Z,81.94
2022-12-13T10:16:56.095Z,81.84
2022-12-13T10:17:56.170Z,81.84
2022-12-13T10:18:56.017Z,81.94
2022-12-13T10:19:56.013Z,82.15
2022-12-13T10:20:56.025Z,81.84
2022-12-13T10:21:55.987Z,81.62
2022-12-13T10:23:31.368Z,81.41
2022-12-13T10:24:24.762Z,81.31
2022-12-13T10:24:56.965Z,81.41
2022-12-13T10:26:02.847Z,81.52
2022-12-13T10:26:56.956Z,81.52
2022-12-13T10:27:56.005Z,81.41
2022-12-13T10:28:55.967Z,81.31
2022-12-13T10:29:55.946Z,81.31
2022-12-13T10:30:55.944Z,81.06
2022-12-13T10:31:56.000Z,81.06
2022-12-13T10:32:55.960Z,80.85
2022-12-13T10:33:55.861Z,80.85
2022-12-13T10:34:55.857Z,80.82
2022-12-13T10:35:55.824Z,80.92
2022-12-13T10:36:59.578Z,80.82
2022-12-13T10:37:55.885Z,80.82
2022-12-13T10:38:55.849Z,80.71
2022-12-13T10:39:55.818Z,80.71
2022-12-13T10:40:55.890Z,80.60
2022-12-13T10:41:55.811Z,80.60
2022-12-13T10:42:55.793Z,80.36
2022-12-13T10:43:55.771Z,79.83
2022-12-13T10:44:55.734Z,79.52
2022-12-13T10:45:55.813Z,79.38
2022-12-13T10:46:55.713Z,79.38
2022-12-13T10:48:00.747Z,79.48
2022-12-13T10:48:56.710Z,79.38
2022-12-13T10:49:59.138Z,78.96
2022-12-13T10:50:55.791Z,78.43
2022-12-13T10:51:55.662Z,77.80
2022-12-13T10:52:55.678Z,77.80
2022-12-13T10:53:55.632Z,77.98
2022-12-13T10:55:01.255Z,78.19
2022-12-13T10:55:56.633Z,78.29
2022-12-13T10:56:56.610Z,77.66
2022-12-13T10:57:55.691Z,76.93
2022-12-13T10:58:55.590Z,76.51
2022-12-13T10:59:55.540Z,76.26
2022-12-13T11:00:55.608Z,76.57
2022-12-13T11:01:55.562Z,76.16
2022-12-13T11:02:55.544Z,76.68
2022-12-13T11:03:55.502Z,76.57
2022-12-13T11:04:56.511Z,76.23
2022-12-13T11:05:55.489Z,76.02
2022-12-13T11:06:55.499Z,75.92
2022-12-13T11:07:55.499Z,75.88
2022-12-13T11:08:56.488Z,75.25
2022-12-13T11:09:56.445Z,74.10
2022-12-13T11:10:56.452Z,73.65
2022-12-13T11:11:58.898Z,73.96
2022-12-13T11:12:55.439Z,74.06
2022-12-13T11:13:55.399Z,73.44
2022-12-13T11:14:55.416Z,73.19
2022-12-13T11:15:55.376Z,73.40
2022-12-13T11:16:55.503Z,73.19
2022-12-13T11:17:55.372Z,72.98
2022-12-13T11:18:55.368Z,73.19
2022-12-13T11:19:55.329Z,73.30
2022-12-13T11:20:55.352Z,72.04
2022-12-13T11:21:55.308Z,71.44
2022-12-13T11:22:55.330Z,71.44
2022-12-13T11:23:55.311Z,71.66
2022-12-13T11:24:55.296Z,71.89
2022-12-13T11:25:55.287Z,72.49
2022-12-13T11:26:55.368Z,73.54
2022-12-13T11:27:55.262Z,73.75
2022-12-13T11:28:55.257Z,73.61
2022-12-13T11:29:55.237Z,72.04
2022-12-13T11:30:55.266Z,71.31
2022-12-13T11:31:56.265Z,71.80
2022-12-13T11:32:59.078Z,70.96
2022-12-13T11:33:55.186Z,70.43
2022-12-13T11:34:55.205Z,71.03
2022-12-13T11:35:55.155Z,71.03
2022-12-13T11:36:56.125Z,70.93
2022-12-13T11:37:55.145Z,70.90
2022-12-13T11:38:57.847Z,70.90
2022-12-13T11:40:01.550Z,70.24
2022-12-13T11:40:56.134Z,69.92
2022-12-13T11:41:55.096Z,69.29
2022-12-13T11:42:55.095Z,69.12
2022-12-13T11:43:55.064Z,69.01
2022-12-13T11:44:55.096Z,69.12
2022-12-13T11:45:55.108Z,69.33
2022-12-13T11:46:55.067Z,69.12
2022-12-13T11:47:58.407Z,68.46
2022-12-13T11:48:55.035Z,68.88
2022-12-13T11:49:55.021Z,68.98
2022-12-13T11:50:55.436Z,68.25
2022-12-13T11:51:54.993Z,68.25
2022-12-13T11:52:55.004Z,67.31
2022-12-13T11:53:54.965Z,66.78
2022-12-13T11:54:54.955Z,67.21
2022-12-13T11:55:54.936Z,67.83
2022-12-13T11:57:00.105Z,68.35
2022-12-13T11:57:55.904Z,67.31
2022-12-13T11:59:02.973Z,66.82
2022-12-13T12:00:02.212Z,67.52
2022-12-13T12:00:55.894Z,68.25
2022-12-13T12:01:54.961Z,67.21
2022-12-13T12:02:54.968Z,66.89
2022-12-13T12:03:55.030Z,67.41
2022-12-13T12:05:00.126Z,67.31
2022-12-13T12:05:56.513Z,67.07
2022-12-13T12:06:54.841Z,67.07
2022-12-13T12:08:32.551Z,66.44
2022-12-13T12:08:55.821Z,65.81
2022-12-13T12:09:55.233Z,65.61
2022-12-13T12:10:55.672Z,66.41
2022-12-13T12:11:55.021Z,66.10
2022-12-13T12:12:54.810Z,66.31
2022-12-13T12:13:55.651Z,64.84
2022-12-13T12:14:55.548Z,65.09
2022-12-13T12:15:54.982Z,65.30
2022-12-13T12:16:54.772Z,65.61
2022-12-13T12:17:54.860Z,66.24
2022-12-13T12:18:55.458Z,65.50
2022-12-13T12:19:55.778Z,65.40
2022-12-13T12:20:54.699Z,65.19
2022-12-13T12:22:56.570Z,64.77
2022-12-13T12:23:54.650Z,64.77
2022-12-13T12:24:54.642Z,63.86
2022-12-13T12:25:54.912Z,65.22
2022-12-13T12:26:54.609Z,66.37
2022-12-13T12:27:54.930Z,66.37
2022-12-13T12:28:54.599Z,66.37
2022-12-13T12:29:54.737Z,65.33
2022-12-13T12:30:54.607Z,65.01
2022-12-13T12:31:55.478Z,65.11
2022-12-13T12:32:55.358Z,65.43
2022-12-13T12:33:54.528Z,65.43
2022-12-13T12:34:54.690Z,65.46
2022-12-13T12:35:54.553Z,65.77
2022-12-13T12:36:54.508Z,66.19
2022-12-13T12:37:54.537Z,66.68
2022-12-13T12:38:54.558Z,66.58
2022-12-13T12:39:54.459Z,65.64
2022-12-13T12:41:24.387Z,65.33
2022-12-13T12:41:55.427Z,64.87
2022-12-13T12:43:14.374Z,64.77
2022-12-13T12:43:55.398Z,63.62
2022-12-13T12:44:54.469Z,62.79
2022-12-13T12:45:56.892Z,63.42
2022-12-13T12:47:08.726Z,63.70
2022-12-13T12:48:46.225Z,63.90
2022-12-13T12:49:01.976Z,63.39
2022-12-13T12:49:55.358Z,63.07
2022-12-13T12:50:54.379Z,63.07
2022-12-13T12:51:54.343Z,63.18
2022-12-13T12:52:54.496Z,63.49